Time;durP1;ratioP1;P1;durP2;ratioP2;P2;SDS_P1;SDS_P2;PMS_P1;PMS_P2;Temp;Humidity;BMP_temperature;BMP_pressure;BME280_temperature;BME280_humidity;BME280_pressure;Samples;Min_cycle;Max_cycle;Signal;HPM_P1;HPM_P2
2022/09/03 00:01:15;;;;;;;8.57;5.13;;;;;;;24.39;71.96;100830.84;2069684;28;20188;-74
2022/09/03 00:02:44;;;;;;;9.27;5.13;;;;;;;24.41;71.75;100831.66;2062842;28;20149;-74
2022/09/03 00:04:16;;;;;;;8.85;5.03;;;;;;;24.41;71.92;100828.97;2061984;28;20058;-74
2022/09/03 00:05:42;;;;;;;12.73;5.13;;;;;;;24.40;71.51;100830.78;2053184;28;20051;-74
2022/09/03 00:07:12;;;;;;;11.50;6.18;;;;;;;24.40;71.63;100829.91;2059607;28;20082;-73
2022/09/03 00:08:40;;;;;;;10.07;5.47;;;;;;;24.39;71.44;100820.91;2052943;28;20126;-74
2022/09/03 00:10:07;;;;;;;11.07;6.03;;;;;;;24.40;71.68;100819.09;2054735;28;20058;-74
2022/09/03 00:11:33;;;;;;;9.38;5.40;;;;;;;24.39;71.42;100828.13;2055395;28;20442;-73
2022/09/03 00:12:59;;;;;;;8.45;5.20;;;;;;;24.35;71.63;100827.34;2053083;28;20047;-74
2022/09/03 00:14:27;;;;;;;11.60;6.00;;;;;;;24.36;71.70;100833.63;2063060;28;20093;-74
2022/09/03 00:15:50;;;;;;;11.05;5.57;;;;;;;24.35;71.64;100826.50;2060216;28;20046;-74
2022/09/03 00:17:17;;;;;;;7.85;4.97;;;;;;;24.32;71.53;100822.09;2053301;28;20074;-74
2022/09/03 00:18:48;;;;;;;12.05;5.75;;;;;;;24.29;71.73;100816.81;2050903;28;20093;-73
2022/09/03 00:20:14;;;;;;;10.18;5.95;;;;;;;24.28;71.74;100815.09;2060065;28;20586;-74
2022/09/03 00:21:41;;;;;;;8.75;5.32;;;;;;;24.27;71.76;100824.13;2053494;28;20613;-74
2022/09/03 00:23:06;;;;;;;12.88;5.80;;;;;;;24.27;71.71;100813.31;2051886;28;20039;-74
2022/09/03 00:24:34;;;;;;;12.40;5.55;;;;;;;24.27;71.49;100813.31;2052053;28;20085;-73
2022/09/03 00:26:01;;;;;;;8.98;5.20;;;;;;;24.24;71.74;100813.44;2060637;28;20082;-74
2022/09/03 00:27:28;;;;;;;9.23;5.03;;;;;;;24.20;71.60;100809.97;2054601;28;20054;-74
2022/09/03 00:28:55;;;;;;;8.65;5.18;;;;;;;24.21;71.55;100816.25;2050446;28;20133;-74
2022/09/03 00:30:19;;;;;;;8.27;5.32;;;;;;;24.20;71.66;100809.09;2050891;28;20136;-74
2022/09/03 00:31:44;;;;;;;9.82;5.22;;;;;;;24.13;71.36;100808.44;2051269;28;20051;-74
2022/09/03 00:33:11;;;;;;;8.43;5.53;;;;;;;24.01;71.68;100803.53;2052493;28;20049;-75
2022/09/03 00:34:40;;;;;;;10.30;5.28;;;;;;;23.89;72.21;100811.22;2052340;28;20410;-73
2022/09/03 00:36:11;;;;;;;10.70;5.28;;;;;;;23.76;72.43;100808.97;2060889;28;20054;-74
2022/09/03 00:37:35;;;;;;;10.55;5.03;;;;;;;23.73;72.71;100806.41;2061615;28;20043;-74
2022/09/03 00:38:57;;;;;;;10.27;5.07;;;;;;;23.77;72.87;100809.84;2061795;28;20058;-74
2022/09/03 00:40:45;;;;;;;7.82;4.97;;;;;;;23.83;72.78;100818.56;2054305;28;20051;-73
2022/09/03 00:42:24;;;;;;;10.57;5.18;;;;;;;23.89;72.30;100813.91;2065161;28;20062;-74
2022/09/03 00:44:12;;;;;;;8.95;5.07;;;;;;;23.91;72.25;100814.72;2047997;29;20130;-74
2022/09/03 00:45:40;;;;;;;8.80;4.97;;;;;;;23.90;72.04;100823.72;2056157;28;20469;-74
2022/09/03 00:47:10;;;;;;;10.27;4.93;;;;;;;23.81;72.24;100816.91;2058855;28;20050;-74
2022/09/03 00:48:43;;;;;;;7.78;4.78;;;;;;;23.79;72.26;100818.75;2063704;28;20070;-74
2022/09/03 00:50:18;;;;;;;8.57;5.38;;;;;;;23.80;72.61;100817.84;2063801;28;20062;-74
2022/09/03 00:51:49;;;;;;;8.00;4.80;;;;;;;23.84;72.53;100817.66;2055220;28;20113;-74
2022/09/03 00:53:21;;;;;;;9.18;5.07;;;;;;;23.88;72.38;100825.63;2053578;28;20047;-74
2022/09/03 00:54:46;;;;;;;;;;;;;;;23.88;72.23;100820.25;2057477;28;20058;-74
2022/09/03 00:56:17;;;;;;;9.80;5.95;;;;;;;23.87;71.91;100819.34;2051966;28;20012;-74
2022/09/03 00:57:51;;;;;;;11.07;5.55;;;;;;;23.83;71.88;100823.97;2055644;28;20067;-74
2022/09/03 00:59:29;;;;;;;12.93;6.13;;;;;;;23.82;71.51;100816.84;2057036;28;20069;-74
2022/09/03 01:00:53;;;;;;;11.02;5.30;;;;;;;23.82;71.66;100829.44;2063186;28;20705;-74
2022/09/03 01:02:27;;;;;;;9.40;5.20;;;;;;;23.83;71.75;100826.66;2062516;28;20046;-74
2022/09/03 01:03:59;;;;;;;7.80;4.88;;;;;;;23.84;71.82;100824.84;2052535;28;20047;-74
2022/09/03 01:05:36;;;;;;;10.10;5.53;;;;;;;23.84;71.63;100827.56;2053474;28;20047;-74
2022/09/03 01:07:08;;;;;;;8.05;5.15;;;;;;;23.82;71.43;100824.94;2065687;28;20101;-74
2022/09/03 01:08:38;;;;;;;;;;;;;;;23.75;71.52;100836.88;2064318;28;20054;-74
2022/09/03 01:10:11;;;;;;;10.82;5.20;;;;;;;23.76;71.60;100832.38;2054230;28;20366;-74
2022/09/03 01:11:46;;;;;;;10.52;5.15;;;;;;;23.77;71.43;100831.41;2062379;28;20537;-73
2022/09/03 01:13:14;;;;;;;10.13;4.90;;;;;;;23.81;71.29;100836.66;2055322;28;20082;-74
2022/09/03 01:14:52;;;;;;;8.95;5.20;;;;;;;23.85;71.25;100837.41;2052733;28;20794;-74
2022/09/03 01:16:24;;;;;;;9.15;5.40;;;;;;;23.86;71.19;100843.69;2063995;28;20548;-74
2022/09/03 01:18:02;;;;;;;8.10;4.82;;;;;;;23.83;71.17;100844.66;2054614;28;20105;-74
2022/09/03 01:20:03;;;;;;;6.65;4.53;;;;;;;23.77;71.41;100855.69;2063223;28;20522;-74
2022/09/03 01:21:50;;;;;;;7.80;4.75;;;;;;;23.72;71.22;100850.47;2069887;28;20042;-74
2022/09/03 01:23:54;;;;;;;10.00;5.15;;;;;;;23.70;71.26;100848.75;2062192;28;20593;-73
2022/09/03 01:25:22;;;;;;;;;;;;;;;23.67;71.12;100852.47;2016738;29;20140;-74
2022/09/03 01:27:04;;;;;;;10.77;5.15;;;;;;;23.70;71.26;100852.34;2029200;29;19927;-74
2022/09/03 01:28:41;;;;;;;10.20;5.45;;;;;;;23.72;70.96;100857.66;2024387;29;20144;-74
2022/09/03 01:30:06;;;;;;;9.55;4.93;;;;;;;23.73;70.83;100860.31;2033717;28;20066;-74
2022/09/03 01:31:39;;;;;;;11.38;4.53;;;;;;;23.71;70.81;100859.50;2054003;28;20055;-74
2022/09/03 01:33:07;;;;;;;8.50;4.60;;;;;;;23.66;71.11;100857.91;2062415;28;20062;-74
2022/09/03 01:34:42;;;;;;;8.00;3.95;;;;;;;23.61;71.00;100854.50;2064012;28;20053;-74
2022/09/03 01:36:11;;;;;;;11.30;4.40;;;;;;;23.53;71.50;100857.47;2062171;28;20057;-74
2022/09/03 01:37:41;;;;;;;8.30;4.72;;;;;;;23.54;71.68;100861.94;2054180;28;20046;-74
2022/09/03 01:39:05;;;;;;;7.97;4.30;;;;;;;23.57;71.56;100859.09;2052070;28;20507;-74
2022/09/03 01:40:36;;;;;;;8.98;4.38;;;;;;;23.61;71.33;100855.38;2058734;28;20054;-73
2022/09/03 01:42:14;;;;;;;8.98;4.57;;;;;;;23.58;71.23;100860.00;2054527;28;20498;-74
2022/09/03 01:43:49;;;;;;;8.77;4.72;;;;;;;23.55;71.40;100863.69;2047760;28;20374;-74
2022/09/03 01:45:31;;;;;;;6.10;4.18;;;;;;;23.54;71.35;100861.94;2046490;28;20051;-74
2022/09/03 01:47:07;;;;;;;9.05;4.80;;;;;;;23.56;71.27;100859.19;2048553;29;20070;-73
2022/09/03 01:48:40;;;;;;;9.40;4.53;;;;;;;23.56;71.32;100856.50;2054237;28;20080;-74
2022/09/03 01:50:06;;;;;;;8.52;4.38;;;;;;;23.55;71.65;100852.91;2060528;28;20062;-73
2022/09/03 01:51:30;;;;;;;8.68;4.85;;;;;;;23.56;71.41;100852.00;2054360;28;20066;-73
2022/09/03 01:52:57;;;;;;;8.23;4.28;;;;;;;23.58;71.40;100850.09;2060842;28;20133;-74
2022/09/03 01:54:49;;;;;;;7.78;4.18;;;;;;;23.56;71.30;100849.28;2052573;28;21232;-74
2022/09/03 01:56:25;;;;;;;6.70;3.83;;;;;;;23.54;71.42;100858.34;2063551;28;20046;-74
2022/09/03 01:57:56;;;;;;;9.73;4.30;;;;;;;23.53;71.22;100853.91;2062013;28;20058;-73
2022/09/03 01:59:27;;;;;;;8.45;3.90;;;;;;;23.51;71.35;100858.44;2062942;28;20501;-73
2022/09/03 02:00:55;;;;;;;7.03;3.95;;;;;;;23.46;71.26;100858.59;2053919;28;20046;-75
2022/09/03 02:02:22;;;;;;;8.98;4.28;;;;;;;23.45;71.48;100865.78;2053958;28;20470;-74
2022/09/03 02:03:48;;;;;;;6.88;4.07;;;;;;;23.46;71.39;100861.28;2058166;28;20046;-74
2022/09/03 02:05:13;;;;;;;6.93;4.00;;;;;;;23.50;71.09;100867.50;2058074;28;20069;-74
2022/09/03 02:06:36;;;;;;;6.93;4.10;;;;;;;23.51;71.28;100869.22;2054355;28;20057;-75
2022/09/03 02:08:00;;;;;;;10.65;4.40;;;;;;;23.53;71.23;100870.06;2054282;28;20146;-74
2022/09/03 02:09:22;;;;;;;7.15;3.97;;;;;;;23.53;71.10;100864.69;2051118;28;20499;-74
2022/09/03 02:10:49;;;;;;;8.40;4.63;;;;;;;23.56;70.96;100862.78;2047374;28;20722;-74
2022/09/03 02:12:15;;;;;;;5.97;4.05;;;;;;;23.59;70.98;100868.03;2056725;28;20058;-75
2022/09/03 02:13:41;;;;;;;9.18;3.88;;;;;;;23.61;70.96;100873.38;2066739;28;20034;-74
2022/09/03 02:15:09;;;;;;;6.45;3.38;;;;;;;23.58;70.93;100865.38;2054803;28;20102;-74
2022/09/03 02:16:34;;;;;;;8.10;3.92;;;;;;;23.56;71.03;100870.84;2059113;28;20109;-73
2022/09/03 02:18:01;;;;;;;9.27;3.95;;;;;;;23.55;71.29;100876.28;2063694;28;20046;-74
2022/09/03 02:19:24;;;;;;;7.95;3.75;;;;;;;23.56;71.00;100870.84;2069770;28;20222;-74
2022/09/03 02:20:49;;;;;;;9.73;4.43;;;;;;;23.59;71.30;100867.16;2062217;28;20054;-74
2022/09/03 02:22:12;;;;;;;8.35;4.40;;;;;;;23.58;71.11;100870.78;2061378;28;20078;-73
2022/09/03 02:23:35;;;;;;;6.22;3.80;;;;;;;23.54;71.18;100866.44;2053032;28;20745;-74
2022/09/03 02:24:56;;;;;;;9.48;3.72;;;;;;;23.52;71.09;100866.50;2063028;28;20656;-74
2022/09/03 02:26:23;;;;;;;7.32;3.25;;;;;;;23.50;71.10;100873.75;2062777;28;20046;-73
2022/09/03 02:27:45;;;;;;;5.38;3.70;;;;;;;23.46;71.41;100877.47;2062251;28;20495;-74
2022/09/03 02:29:08;;;;;;;6.20;3.47;;;;;;;23.44;71.27;100869.41;2059949;28;20522;-74
2022/09/03 02:30:31;;;;;;;9.25;3.72;;;;;;;23.42;71.47;100878.50;2061494;28;20046;-74
2022/09/03 02:31:53;;;;;;;5.07;3.47;;;;;;;23.36;71.56;100879.63;2057908;28;20085;-73
2022/09/03 02:33:15;;;;;;;6.45;3.55;;;;;;;23.32;71.69;100879.75;2053049;28;20060;-74
2022/09/03 02:34:38;;;;;;;7.45;3.30;;;;;;;23.24;71.93;100876.44;2053676;28;20058;-73
2022/09/03 02:36:01;;;;;;;7.15;2.97;;;;;;;23.15;72.10;100880.34;2060952;28;20057;-74
2022/09/03 02:37:22;;;;;;;6.93;3.47;;;;;;;23.14;72.11;100880.41;2045499;28;20086;-74
2022/09/03 02:38:46;;;;;;;7.30;3.47;;;;;;;23.16;72.41;100881.25;2055131;28;20519;-74
2022/09/03 02:40:10;;;;;;;10.63;4.13;;;;;;;23.20;72.37;100882.88;2060200;28;20073;-74
2022/09/03 02:41:34;;;;;;;6.07;3.63;;;;;;;23.24;71.97;100877.31;2066263;28;20445;-74
2022/09/03 02:42:55;;;;;;;5.57;3.47;;;;;;;23.29;72.04;100882.56;2061229;28;20494;-74
2022/09/03 02:44:26;;;;;;;7.60;3.30;;;;;;;23.33;71.72;100879.72;2061920;28;20062;-73
2022/09/03 02:45:52;;;;;;;6.45;3.55;;;;;;;23.37;71.63;100880.47;2060500;28;20042;-73
2022/09/03 02:47:18;;;;;;;6.65;3.58;;;;;;;23.38;71.77;100875.03;2054202;28;20046;-74
2022/09/03 02:48:40;;;;;;;6.28;3.33;;;;;;;23.37;71.54;100880.47;2051085;28;20507;-73
2022/09/03 02:50:02;;;;;;;6.60;3.50;;;;;;;23.35;71.76;100882.34;2057237;28;20111;-73
2022/09/03 02:51:24;;;;;;;7.60;3.80;;;;;;;23.36;71.66;100881.44;2048261;28;20050;-74
2022/09/03 02:52:47;;;;;;;5.03;3.25;;;;;;;23.36;71.56;100881.44;2057828;28;20385;-74
2022/09/03 02:54:09;;;;;;;6.22;3.70;;;;;;;23.38;71.19;100880.41;2054745;28;20038;-74
2022/09/03 02:55:32;;;;;;;5.88;3.35;;;;;;;23.39;71.13;100882.19;2051043;28;20113;-74
2022/09/03 02:56:55;;;;;;;6.63;3.58;;;;;;;23.42;71.28;100881.22;2059227;28;20666;-74
2022/09/03 02:58:16;;;;;;;6.57;3.38;;;;;;;23.41;71.18;100877.63;2051972;28;20153;-74
2022/09/03 02:59:40;;;;;;;8.20;3.50;;;;;;;23.39;70.95;100881.31;2066317;28;20475;-74
2022/09/03 03:01:05;;;;;;;5.07;3.10;;;;;;;23.34;71.18;100878.78;2055697;28;20121;-74
2022/09/03 03:02:26;;;;;;;6.55;3.28;;;;;;;23.29;71.46;100877.19;2052238;28;20061;-74
2022/09/03 03:03:49;;;;;;;7.20;3.42;;;;;;;23.26;71.65;100880.84;2057679;28;20134;-73
2022/09/03 03:05:18;;;;;;;7.60;3.50;;;;;;;23.27;71.73;100879.03;2058168;28;21706;-74
2022/09/03 03:06:40;;;;;;;7.10;3.10;;;;;;;23.29;71.77;100879.88;2068736;28;20052;-73
2022/09/03 03:08:03;;;;;;;7.32;3.60;;;;;;;23.31;71.46;100873.47;2054761;28;20515;-74
2022/09/03 03:09:25;;;;;;;7.53;3.63;;;;;;;23.34;71.05;100877.91;2057091;28;20061;-74
2022/09/03 03:10:48;;;;;;;5.70;3.00;;;;;;;23.35;70.81;100876.97;2037508;28;20142;-74
2022/09/03 03:12:09;;;;;;;5.43;3.30;;;;;;;23.38;70.78;100882.22;2055645;28;20174;-74
2022/09/03 03:13:32;;;;;;;6.28;3.33;;;;;;;23.39;70.59;100871.41;2051541;28;20051;-74
2022/09/03 03:14:55;;;;;;;7.38;3.65;;;;;;;23.37;70.63;100885.84;2057240;28;20509;-74
2022/09/03 03:16:18;;;;;;;6.97;3.50;;;;;;;23.34;70.73;100886.88;2050046;28;20054;-73
2022/09/03 03:17:41;;;;;;;5.03;3.35;;;;;;;23.29;70.94;100885.28;2058784;28;20566;-74
2022/09/03 03:19:04;;;;;;;5.28;3.10;;;;;;;23.27;71.00;100884.44;2051604;28;20062;-74
2022/09/03 03:20:27;;;;;;;8.57;3.78;;;;;;;23.26;71.00;100893.44;2049455;28;20511;-74
2022/09/03 03:21:49;;;;;;;5.57;3.22;;;;;;;23.25;71.25;100892.56;2049442;28;20046;-73
2022/09/03 03:23:12;;;;;;;7.22;3.72;;;;;;;23.25;71.54;100888.97;2063032;28;20114;-74
2022/09/03 03:24:35;;;;;;;5.20;3.25;;;;;;;23.25;71.63;100884.47;2054560;28;20125;-74
2022/09/03 03:26:01;;;;;;;9.25;3.60;;;;;;;23.26;71.63;100888.06;2057310;28;20050;-74
2022/09/03 03:27:24;;;;;;;5.35;3.33;;;;;;;23.25;71.62;100889.88;2063897;28;20053;-74
2022/09/03 03:28:47;;;;;;;5.45;3.38;;;;;;;23.27;71.32;100881.75;2060397;28;20050;-74
2022/09/03 03:30:12;;;;;;;4.45;3.30;;;;;;;23.27;71.18;100887.13;2052733;28;20615;-74
2022/09/03 03:31:35;;;;;;;5.95;3.53;;;;;;;23.28;70.93;100880.81;2047563;28;21616;-74
2022/09/03 03:32:58;;;;;;;4.30;3.08;;;;;;;23.28;70.91;100880.81;2058328;28;20054;-74
2022/09/03 03:34:21;;;;;;;7.25;2.92;;;;;;;23.31;70.78;100883.38;2060408;28;20060;-74
2022/09/03 03:35:42;;;;;;;6.80;3.40;;;;;;;23.34;70.61;100884.16;2060073;28;20133;-73
2022/09/03 03:37:05;;;;;;;5.60;3.25;;;;;;;23.37;70.57;100880.47;2052129;28;20074;-74
2022/09/03 03:38:27;;;;;;;9.68;3.83;;;;;;;23.39;70.32;100884.00;2061693;28;20534;-74
2022/09/03 03:39:49;;;;;;;6.38;3.05;;;;;;;23.39;70.32;100884.00;2052454;28;20062;-74
2022/09/03 03:41:14;;;;;;;7.45;4.85;;;;;;;23.40;70.08;100877.69;2049499;28;20105;-74
2022/09/03 03:42:37;;;;;;;7.63;3.67;;;;;;;23.36;70.50;100887.69;2060367;28;20125;-73
2022/09/03 03:44:01;;;;;;;5.78;3.47;;;;;;;23.33;70.57;100884.22;2059635;28;20076;-74
2022/09/03 03:45:23;;;;;;;9.75;3.30;;;;;;;23.34;70.48;100884.16;2053277;28;20046;-74
2022/09/03 03:46:47;;;;;;;7.13;2.95;;;;;;;23.34;70.49;100875.19;2059714;28;20140;-74
2022/09/03 03:48:09;;;;;;;5.88;3.03;;;;;;;23.34;70.32;100883.28;2059303;28;20130;-74
2022/09/03 03:49:31;;;;;;;6.75;2.92;;;;;;;23.34;70.29;100877.91;2050591;28;20043;-75
2022/09/03 03:50:52;;;;;;;5.90;3.33;;;;;;;23.32;70.18;100886.03;2049216;28;20376;-74
2022/09/03 03:52:15;;;;;;;12.68;4.53;;;;;;;23.31;70.39;100883.38;2048489;28;20709;-74
2022/09/03 03:53:39;;;;;;;5.00;3.00;;;;;;;23.31;70.41;100881.56;2044814;28;20046;-73
2022/09/03 03:55:01;;;;;;;6.85;3.30;;;;;;;23.29;70.48;100885.28;2058203;28;20058;-74
2022/09/03 03:56:25;;;;;;;7.40;3.00;;;;;;;23.28;70.81;100888.91;2055631;28;20468;-74
2022/09/03 03:57:47;;;;;;;8.27;3.78;;;;;;;23.26;71.24;100890.75;2050243;28;20523;-74
2022/09/03 03:59:09;;;;;;;5.57;2.90;;;;;;;23.26;71.25;100888.06;2057026;28;20046;-74
2022/09/03 04:00:30;;;;;;;5.35;3.45;;;;;;;23.23;71.84;100888.19;2059902;28;20034;-74
2022/09/03 04:01:56;;;;;;;6.85;3.17;;;;;;;23.22;72.21;100890.00;2061076;28;20046;-73
2022/09/03 04:03:18;;;;;;;6.07;3.35;;;;;;;23.23;72.20;100896.25;2051654;28;20149;-74
2022/09/03 04:04:42;;;;;;;5.38;3.25;;;;;;;23.27;72.25;100893.41;2050093;28;20138;-74
2022/09/03 04:06:06;;;;;;;8.75;3.33;;;;;;;23.36;72.15;100897.59;2046020;29;20451;-74
2022/09/03 04:07:29;;;;;;;5.95;3.90;;;;;;;23.41;72.16;100901.88;2052399;28;20101;-74
2022/09/03 04:08:50;;;;;;;8.63;2.90;;;;;;;23.48;72.06;100901.69;2060175;28;20042;-74
2022/09/03 04:10:14;;;;;;;6.40;3.53;;;;;;;23.54;72.09;100906.88;2053996;28;20050;-74
2022/09/03 04:11:37;;;;;;;7.25;3.10;;;;;;;23.57;72.28;100907.63;2062178;28;20046;-74
2022/09/03 04:13:00;;;;;;;6.32;2.70;;;;;;;23.65;72.24;100901.97;2052313;28;20046;-73
2022/09/03 04:14:23;;;;;;;3.92;2.88;;;;;;;23.73;72.03;100903.47;2058218;28;20050;-73
2022/09/03 04:15:44;;;;;;;5.78;2.85;;;;;;;23.79;71.47;100903.25;2063221;28;20042;-74
2022/09/03 04:17:09;;;;;;;4.15;2.58;;;;;;;23.87;71.28;100904.78;2063845;28;20380;-73
2022/09/03 04:18:31;;;;;;;6.50;3.33;;;;;;;23.95;71.36;100906.25;2059146;28;20783;-73
2022/09/03 04:19:54;;;;;;;5.47;3.25;;;;;;;24.02;71.28;100904.22;2052994;28;20157;-73
2022/09/03 04:21:17;;;;;;;5.30;2.95;;;;;;;24.11;71.51;100915.53;2059553;28;20077;-74
2022/09/03 04:22:40;;;;;;;5.55;2.58;;;;;;;24.20;71.20;100914.34;2050462;28;20043;-73
2022/09/03 04:24:04;;;;;;;6.03;2.80;;;;;;;24.29;71.49;100911.25;2056080;28;20047;-74
2022/09/03 04:25:26;;;;;;;5.68;2.88;;;;;;;24.36;71.25;100912.78;2054391;28;20075;-73
2022/09/03 04:26:49;;;;;;;10.55;3.08;;;;;;;24.43;71.15;100911.59;2059867;28;20071;-74
2022/09/03 04:28:12;;;;;;;5.25;2.85;;;;;;;24.51;70.83;100908.63;2062068;28;20092;-73
2022/09/03 04:29:35;;;;;;;5.15;2.90;;;;;;;24.59;70.67;100912.78;2062831;28;20161;-73
2022/09/03 04:31:00;;;;;;;4.80;2.30;;;;;;;24.67;70.29;100912.47;2060812;28;20046;-73
2022/09/03 04:34:05;;;;;;;8.20;2.65;;;;;;;24.87;69.80;100912.56;2054939;28;20062;-73
2022/09/03 04:35:28;;;;;;;5.97;2.13;;;;;;;24.97;69.56;100911.25;2059092;28;20112;-74
2022/09/03 04:36:51;;;;;;;5.80;2.50;;;;;;;25.08;69.50;100905.38;2061155;28;20070;-73
2022/09/03 04:38:12;;;;;;;7.43;2.67;;;;;;;25.19;68.94;100910.34;2051982;28;20776;-73
2022/09/03 04:39:35;;;;;;;5.95;2.40;;;;;;;25.30;68.90;100911.66;2051701;28;20054;-74
2022/09/03 04:40:58;;;;;;;9.93;2.85;;;;;;;25.39;68.23;100913.97;2056744;28;20169;-73
2022/09/03 04:42:21;;;;;;;5.63;2.25;;;;;;;25.52;67.93;100916.13;2052813;28;20082;-74
2022/09/03 04:43:44;;;;;;;6.80;2.40;;;;;;;25.62;67.92;100921.09;2057913;28;20050;-74
2022/09/03 04:45:07;;;;;;;4.20;2.13;;;;;;;25.74;67.78;100922.38;2054602;28;20055;-74
2022/09/03 04:46:32;;;;;;;10.45;2.38;;;;;;;25.85;67.71;100928.22;2058445;28;20129;-74
2022/09/03 04:47:59;;;;;;;4.70;1.92;;;;;;;25.95;67.22;100924.13;2054058;28;20426;-74
2022/09/03 04:49:23;;;;;;;6.13;3.13;;;;;;;26.03;67.35;100924.66;2050508;28;20054;-74
2022/09/03 04:50:46;;;;;;;5.80;2.05;;;;;;;26.11;66.92;100930.59;2052543;28;20047;-74
2022/09/03 04:52:08;;;;;;;6.05;2.13;;;;;;;26.19;66.90;100936.53;2038660;29;20106;-73
2022/09/03 04:53:31;;;;;;;5.30;2.05;;;;;;;26.30;66.72;100932.50;2055449;28;20108;-74
2022/09/03 04:54:54;;;;;;;2.83;1.70;;;;;;;26.43;66.45;100928.25;2060089;28;20061;-73
2022/09/03 04:56:18;;;;;;;5.75;2.10;;;;;;;26.57;65.93;100939.31;2063038;28;20065;-73
2022/09/03 04:57:41;;;;;;;3.45;1.80;;;;;;;26.71;65.42;100931.41;2050836;28;20154;-74
2022/09/03 04:59:06;;;;;;;7.45;2.28;;;;;;;26.84;64.40;100938.00;2048115;28;20062;-74
2022/09/03 05:00:28;;;;;;;3.35;2.13;;;;;;;26.96;64.13;100940.13;2053972;28;20110;-74
2022/09/03 05:01:51;;;;;;;4.03;1.80;;;;;;;27.08;63.85;100938.63;2058513;28;20288;-73
2022/09/03 05:03:16;;;;;;;6.75;2.20;;;;;;;27.22;63.64;100940.66;2062496;28;20054;-74
2022/09/03 05:04:38;;;;;;;9.13;1.88;;;;;;;27.35;63.09;100936.34;2059756;28;20157;-74
2022/09/03 05:06:02;;;;;;;4.22;1.80;;;;;;;27.48;62.87;100937.50;2062193;28;20105;-73
2022/09/03 05:07:27;;;;;;;7.18;1.80;;;;;;;27.59;62.46;100932.41;2062208;28;20146;-73
2022/09/03 05:08:49;;;;;;;3.30;1.50;;;;;;;27.72;61.89;100936.22;2060921;28;20553;-73
2022/09/03 05:10:19;;;;;;;3.55;1.60;;;;;;;27.86;61.64;100931.91;2053961;28;20054;-74
2022/09/03 05:11:41;;;;;;;3.50;2.20;;;;;;;27.98;61.46;100934.84;2052431;28;20081;-74
2022/09/03 05:13:06;;;;;;;2.97;1.63;;;;;;;28.09;60.88;100928.84;2058290;28;20050;-74
2022/09/03 05:14:29;;;;;;;3.92;1.83;;;;;;;28.22;60.53;100937.25;2053864;28;20241;-73
2022/09/03 05:15:50;;;;;;;3.85;1.70;;;;;;;28.34;59.88;100940.16;2051143;28;20078;-73
2022/09/03 05:17:13;;;;;;;3.05;1.42;;;;;;;28.47;59.27;100935.78;2055919;28;20070;-74
2022/09/03 05:18:39;;;;;;;4.00;1.50;;;;;;;28.61;58.84;100931.44;2050707;28;20050;-74
2022/09/03 05:20:00;;;;;;;4.10;1.60;;;;;;;28.75;58.67;100940.56;2056503;28;20093;-74
2022/09/03 05:21:23;;;;;;;6.30;2.10;;;;;;;28.90;58.06;100941.53;2055170;28;20055;-73
2022/09/03 05:22:48;;;;;;;5.38;1.63;;;;;;;29.04;57.37;100940.72;2050376;28;20042;-74
2022/09/03 05:24:13;;;;;;;7.18;1.95;;;;;;;29.17;56.81;100939.03;2053569;28;20165;-73
2022/09/03 05:25:36;;;;;;;2.85;1.50;;;;;;;29.30;56.63;100943.69;2057061;28;20080;-74
2022/09/03 05:27:00;;;;;;;3.38;2.03;;;;;;;29.46;56.47;100949.13;2050162;28;20057;-73
2022/09/03 05:28:21;;;;;;;3.03;1.50;;;;;;;29.59;56.05;100947.41;2055766;28;20089;-73
2022/09/03 05:29:44;;;;;;;2.78;1.40;;;;;;;29.71;55.67;100952.13;2057495;28;20137;-74
2022/09/03 05:31:08;;;;;;;4.07;1.48;;;;;;;29.86;55.15;100946.72;2053480;28;20502;-74
2022/09/03 05:32:31;;;;;;;3.72;1.70;;;;;;;29.92;54.27;100958.13;2058962;28;20062;-74
2022/09/03 05:33:58;;;;;;;4.07;1.58;;;;;;;29.99;54.03;100948.59;2057915;28;20046;-74
2022/09/03 05:35:21;;;;;;;5.22;1.50;;;;;;;30.09;53.01;100948.91;2061243;28;20225;-74
2022/09/03 05:36:45;;;;;;;2.40;1.50;;;;;;;30.16;52.56;100950.25;2054843;28;20034;-73
2022/09/03 05:38:08;;;;;;;3.95;1.40;;;;;;;30.26;52.12;100956.03;2058911;28;20399;-74
2022/09/03 05:39:31;;;;;;;3.45;1.40;;;;;;;30.38;52.01;100957.97;2061349;28;20088;-74
2022/09/03 05:40:53;;;;;;;4.93;1.73;;;;;;;30.51;51.70;100948.06;2053096;28;20055;-74
2022/09/03 05:42:16;;;;;;;2.30;1.30;;;;;;;30.68;51.30;100949.69;2054909;28;20531;-74
2022/09/03 05:43:39;;;;;;;3.20;1.42;;;;;;;30.81;50.85;100954.25;2062258;28;20654;-73
2022/09/03 05:45:02;;;;;;;3.17;1.67;;;;;;;30.87;50.41;100953.84;2053838;28;20498;-74
2022/09/03 05:46:30;;;;;;;3.70;1.50;;;;;;;30.99;50.22;100949.41;2055288;28;20541;-74
2022/09/03 05:47:52;;;;;;;2.38;1.35;;;;;;;31.11;50.03;100953.25;2053668;28;20681;-73
2022/09/03 05:49:17;;;;;;;3.33;1.42;;;;;;;31.22;49.79;100956.09;2053671;28;20416;-74
2022/09/03 05:50:39;;;;;;;3.60;1.30;;;;;;;31.37;49.60;100956.94;2050456;28;20043;-74
2022/09/03 05:52:02;;;;;;;3.97;1.52;;;;;;;31.51;49.22;100955.00;2055937;28;20501;-74
2022/09/03 05:53:24;;;;;;;6.47;2.45;;;;;;;31.64;49.18;100950.47;2049315;28;20054;-73
2022/09/03 05:54:46;;;;;;;3.15;1.45;;;;;;;31.76;49.03;100947.88;2051350;28;20499;-73
2022/09/03 05:56:11;;;;;;;3.88;1.45;;;;;;;31.86;49.21;100954.44;2050521;28;20049;-74
2022/09/03 05:57:34;;;;;;;4.72;1.50;;;;;;;31.95;49.33;100954.69;2058517;28;20175;-74
2022/09/03 05:58:57;;;;;;;4.72;1.58;;;;;;;32.06;49.85;100957.53;2053989;28;20054;-74
2022/09/03 06:00:20;;;;;;;4.40;1.63;;;;;;;32.08;50.09;100949.22;2066512;28;20050;-74
2022/09/03 06:01:45;;;;;;;5.78;1.52;;;;;;;32.16;50.70;100951.44;2064608;28;20046;-74
2022/09/03 06:03:08;;;;;;;3.80;1.50;;;;;;;32.30;50.69;100948.56;2064236;28;20054;-75
2022/09/03 06:04:33;;;;;;;3.75;1.77;;;;;;;32.41;50.37;100948.69;2048088;28;20135;-74
2022/09/03 06:05:54;;;;;;;5.05;1.80;;;;;;;32.49;50.54;100948.16;2060650;28;20057;-75
2022/09/03 06:07:17;;;;;;;7.35;1.95;;;;;;;32.52;50.67;100943.31;2064508;28;20046;-74
2022/09/03 06:08:41;;;;;;;5.30;1.90;;;;;;;32.58;50.66;100942.84;2051555;28;20062;-74
2022/09/03 06:10:04;;;;;;;5.70;1.67;;;;;;;32.60;50.51;100943.63;2052021;28;20117;-74
2022/09/03 06:11:26;;;;;;;4.18;1.42;;;;;;;32.66;50.37;100950.50;2058869;28;20205;-74
2022/09/03 06:12:52;;;;;;;7.18;1.90;;;;;;;32.71;50.58;100951.06;2049822;28;20053;-73
2022/09/03 06:14:15;;;;;;;3.95;1.58;;;;;;;32.77;50.38;100946.00;2047738;28;20055;-74
2022/09/03 06:15:38;;;;;;;4.57;1.70;;;;;;;32.83;50.33;100942.81;2051130;28;20047;-73
2022/09/03 06:17:00;;;;;;;4.28;1.65;;;;;;;32.91;50.39;100945.00;2056957;28;20060;-74
2022/09/03 06:18:23;;;;;;;7.75;1.80;;;;;;;33.00;50.22;100947.06;2061509;28;20130;-74
2022/09/03 06:19:47;;;;;;;6.75;1.58;;;;;;;33.08;49.68;100951.94;2061036;28;20113;-74
2022/09/03 06:21:08;;;;;;;8.60;1.92;;;;;;;33.13;49.73;100953.34;2050368;28;20513;-74
2022/09/03 06:22:31;;;;;;;4.30;1.77;;;;;;;33.22;49.48;100958.13;2055130;28;20270;-73
2022/09/03 06:23:55;;;;;;;5.88;1.63;;;;;;;33.33;49.41;100957.34;2059212;28;20208;-73
2022/09/03 06:25:18;;;;;;;6.15;1.60;;;;;;;33.38;49.32;100960.59;2051150;28;20121;-73
2022/09/03 06:26:39;;;;;;;3.58;1.60;;;;;;;33.47;49.19;100956.28;2059410;28;20553;-73
2022/09/03 06:28:02;;;;;;;5.07;1.63;;;;;;;33.59;49.22;100963.56;2058228;28;20326;-73
2022/09/03 06:29:24;;;;;;;4.32;1.40;;;;;;;33.71;48.83;100953.53;2050892;28;20031;-74
2022/09/03 06:30:46;;;;;;;3.53;1.35;;;;;;;33.82;48.39;100951.69;2058748;28;20415;-74
2022/09/03 06:32:09;;;;;;;5.78;1.75;;;;;;;33.94;47.90;100947.09;2059734;28;20080;-73
2022/09/03 06:33:31;;;;;;;5.25;1.55;;;;;;;34.04;47.54;100953.63;2054142;28;20630;-74
2022/09/03 06:34:56;;;;;;;5.20;1.67;;;;;;;34.12;47.49;100955.75;2058608;28;20046;-74
2022/09/03 06:36:19;;;;;;;6.82;1.85;;;;;;;34.10;47.28;100963.22;2059234;28;20051;-74
2022/09/03 06:37:42;;;;;;;4.68;1.60;;;;;;;34.07;47.55;100958.00;2060257;28;20046;-74
2022/09/03 06:39:05;;;;;;;4.95;1.55;;;;;;;34.10;47.55;100958.59;2058296;28;20077;-74
2022/09/03 06:40:26;;;;;;;3.97;1.77;;;;;;;34.18;47.61;100966.22;2061538;28;20133;-74